DAL1582 SVMC-TBPB
Flight info
| Callsign | DAL1582 |
|---|---|
| Flight time | N/A |
| Altitude | FL330 |
| Route | ASIBA1.MAU VUNUM TOROP OPLUD BGI |
| Aircraft | MD82/M-S/NAEXS |
Departure
| Time | N/A |
|---|---|
| Airport | La Chinita International Airport (SVMC) |
Arrival
| Time | 2026-05-07 04:26 |
|---|---|
| Airport | Grantley Adams International Airport (TBPB) |
| Time | Latitude | Longitude | Altitude | Speed | Heading |
|---|---|---|---|---|---|
| 2026-05-07 02:50 | 10.86624 | -70.22402 | 30383 ft | 432 kts | 82° |
| 2026-05-07 02:51 | 10.87036 | -70.19991 | 31017 ft | 411 kts | 82° |
| 2026-05-07 02:52 | 10.87494 | -70.17348 | 32812 ft | 370 kts | 83° |
| 2026-05-07 02:52 | 10.87941 | -70.14730 | 32812 ft | 379 kts | 83° |
| 2026-05-07 02:52 | 10.88825 | -70.09389 | 32902 ft | 388 kts | 83° |
| 2026-05-07 02:53 | 10.89738 | -70.03922 | 32917 ft | 399 kts | 83° |
| 2026-05-07 02:53 | 10.90689 | -69.98296 | 32915 ft | 409 kts | 83° |
| 2026-05-07 02:54 | 10.91655 | -69.92551 | 32912 ft | 418 kts | 83° |
| 2026-05-07 02:54 | 10.92636 | -69.86672 | 32911 ft | 426 kts | 83° |
| 2026-05-07 02:55 | 10.93635 | -69.80673 | 32911 ft | 434 kts | 83° |
| 2026-05-07 02:55 | 10.94645 | -69.74575 | 32910 ft | 440 kts | 83° |
| 2026-05-07 02:56 | 10.95653 | -69.68435 | 32906 ft | 440 kts | 83° |
| 2026-05-07 02:56 | 10.96652 | -69.62368 | 32905 ft | 435 kts | 83° |
| 2026-05-07 02:57 | 10.97663 | -69.56284 | 32726 ft | 439 kts | 80° |
| 2026-05-07 02:57 | 10.98698 | -69.50199 | 32597 ft | 439 kts | 79° |
| 2026-05-07 02:58 | 10.99740 | -69.44047 | 32549 ft | 444 kts | 78° |
| 2026-05-07 02:58 | 11.00783 | -69.37819 | 32546 ft | 449 kts | 79° |
| 2026-05-07 02:59 | 11.01832 | -69.31551 | 32546 ft | 453 kts | 79° |
| 2026-05-07 02:59 | 11.02887 | -69.25226 | 32547 ft | 456 kts | 78° |
| 2026-05-07 03:00 | 11.03951 | -69.18859 | 32545 ft | 458 kts | 78° |
| 2026-05-07 03:00 | 11.04999 | -69.12559 | 32544 ft | 457 kts | 79° |
| 2026-05-07 03:01 | 11.06065 | -69.06167 | 32543 ft | 454 kts | 79° |
| 2026-05-07 03:01 | 11.07124 | -68.99826 | 32543 ft | 452 kts | 79° |
| 2026-05-07 03:02 | 11.08174 | -68.93555 | 32543 ft | 450 kts | 79° |
| 2026-05-07 03:02 | 11.09216 | -68.87320 | 32545 ft | 450 kts | 79° |
| 2026-05-07 03:03 | 11.10273 | -68.81001 | 32545 ft | 452 kts | 79° |
| 2026-05-07 03:03 | 11.11322 | -68.74742 | 32545 ft | 454 kts | 79° |
| 2026-05-07 03:04 | 11.12385 | -68.68401 | 32544 ft | 455 kts | 79° |
| 2026-05-07 03:04 | 11.13440 | -68.62106 | 32544 ft | 455 kts | 79° |
| 2026-05-07 03:05 | 11.14476 | -68.55842 | 32544 ft | 454 kts | 79° |
| 2026-05-07 03:05 | 11.15531 | -68.49524 | 32544 ft | 453 kts | 79° |
| 2026-05-07 03:06 | 11.16578 | -68.43273 | 32609 ft | 448 kts | 80° |
| 2026-05-07 03:06 | 11.17080 | -68.40152 | 32745 ft | 432 kts | 83° |
| 2026-05-07 03:06 | 11.17499 | -68.37209 | 32796 ft | 416 kts | 84° |
| 2026-05-07 03:07 | 11.18213 | -68.31405 | 32820 ft | 416 kts | 85° |
| 2026-05-07 03:07 | 11.18931 | -68.25520 | 32828 ft | 423 kts | 85° |
| 2026-05-07 03:08 | 11.19714 | -68.19562 | 32854 ft | 430 kts | 85° |
| 2026-05-07 03:08 | 11.20513 | -68.13465 | 32906 ft | 436 kts | 85° |
| 2026-05-07 03:09 | 11.21312 | -68.07293 | 32904 ft | 443 kts | 85° |
| 2026-05-07 03:09 | 11.22138 | -68.01094 | 32881 ft | 443 kts | 85° |
| 2026-05-07 03:10 | 11.22944 | -67.94950 | 32884 ft | 432 kts | 85° |
| 2026-05-07 03:10 | 11.23733 | -67.88920 | 32905 ft | 431 kts | 84° |
| 2026-05-07 03:11 | 11.24542 | -67.82839 | 32891 ft | 438 kts | 85° |
| 2026-05-07 03:11 | 11.25353 | -67.76654 | 32847 ft | 443 kts | 84° |
| 2026-05-07 03:12 | 11.26185 | -67.70525 | 32833 ft | 433 kts | 84° |
| 2026-05-07 03:12 | 11.26971 | -67.64517 | 32840 ft | 423 kts | 85° |
| 2026-05-07 03:13 | 11.27744 | -67.58575 | 32826 ft | 428 kts | 84° |
| 2026-05-07 03:13 | 11.28550 | -67.52526 | 32817 ft | 435 kts | 84° |
| 2026-05-07 03:14 | 11.29344 | -67.46403 | 32840 ft | 440 kts | 85° |
| 2026-05-07 03:15 | 11.30571 | -67.37139 | 32844 ft | 437 kts | 84° |
| 2026-05-07 03:15 | 11.31384 | -67.31129 | 32828 ft | 422 kts | 84° |
| 2026-05-07 03:16 | 11.32132 | -67.25285 | 32837 ft | 418 kts | 85° |
| 2026-05-07 03:16 | 11.32888 | -67.19356 | 32860 ft | 425 kts | 85° |
| 2026-05-07 03:17 | 11.33694 | -67.13335 | 32858 ft | 433 kts | 84° |
| 2026-05-07 03:17 | 11.34493 | -67.07242 | 32857 ft | 438 kts | 85° |
| 2026-05-07 03:18 | 11.35302 | -67.01114 | 32868 ft | 437 kts | 85° |
| 2026-05-07 03:18 | 11.36100 | -66.95023 | 32873 ft | 430 kts | 85° |
| 2026-05-07 03:19 | 11.36882 | -66.89040 | 32870 ft | 426 kts | 85° |
| 2026-05-07 03:19 | 11.37672 | -66.83036 | 32874 ft | 431 kts | 85° |
| 2026-05-07 03:20 | 11.38465 | -66.76954 | 32886 ft | 437 kts | 85° |
| 2026-05-07 03:20 | 11.39284 | -66.70781 | 32890 ft | 442 kts | 85° |
| 2026-05-07 03:21 | 11.40095 | -66.64605 | 32885 ft | 441 kts | 85° |
| 2026-05-07 03:21 | 11.40910 | -66.58458 | 32883 ft | 435 kts | 85° |
| 2026-05-07 03:22 | 11.41714 | -66.52358 | 32894 ft | 434 kts | 84° |
| 2026-05-07 03:22 | 11.42510 | -66.46287 | 32898 ft | 437 kts | 85° |
| 2026-05-07 03:23 | 11.43308 | -66.40147 | 32901 ft | 440 kts | 85° |
| 2026-05-07 03:23 | 11.44095 | -66.34176 | 32898 ft | 439 kts | 85° |
| 2026-05-07 03:24 | 11.44928 | -66.27856 | 32899 ft | 436 kts | 85° |
| 2026-05-07 03:24 | 11.45719 | -66.21809 | 32899 ft | 434 kts | 85° |
| 2026-05-07 03:25 | 11.46610 | -66.15676 | 32907 ft | 436 kts | 81° |
| 2026-05-07 03:25 | 11.48149 | -66.09716 | 32919 ft | 437 kts | 75° |
| 2026-05-07 03:26 | 11.49979 | -66.03825 | 32900 ft | 435 kts | 75° |
| 2026-05-07 03:26 | 11.51707 | -65.97952 | 32901 ft | 436 kts | 76° |
| 2026-05-07 03:27 | 11.53346 | -65.91973 | 32905 ft | 438 kts | 77° |
| 2026-05-07 03:27 | 11.54973 | -65.85972 | 32902 ft | 438 kts | 77° |
| 2026-05-07 03:28 | 11.56586 | -65.80060 | 32897 ft | 436 kts | 77° |
| 2026-05-07 03:28 | 11.58208 | -65.74134 | 32896 ft | 433 kts | 77° |
| 2026-05-07 03:29 | 11.59821 | -65.68250 | 32897 ft | 431 kts | 77° |
| 2026-05-07 03:29 | 11.61424 | -65.62411 | 32900 ft | 429 kts | 77° |
| 2026-05-07 03:30 | 11.63030 | -65.56559 | 32896 ft | 429 kts | 77° |
| 2026-05-07 03:30 | 11.64625 | -65.50740 | 32895 ft | 428 kts | 77° |
| 2026-05-07 03:31 | 11.66230 | -65.44883 | 32894 ft | 431 kts | 77° |
| 2026-05-07 03:31 | 11.67852 | -65.38985 | 32897 ft | 437 kts | 77° |
| 2026-05-07 03:32 | 11.69378 | -65.32933 | 32906 ft | 443 kts | 78° |
| 2026-05-07 03:32 | 11.70812 | -65.26803 | 32910 ft | 448 kts | 79° |
| 2026-05-07 03:33 | 11.72247 | -65.20597 | 32907 ft | 448 kts | 79° |
| 2026-05-07 03:33 | 11.73666 | -65.14503 | 32903 ft | 438 kts | 79° |
| 2026-05-07 03:34 | 11.75037 | -65.08685 | 32900 ft | 429 kts | 79° |
| 2026-05-07 03:34 | 11.76455 | -65.02656 | 32907 ft | 433 kts | 79° |
| 2026-05-07 03:35 | 11.77905 | -64.96617 | 32909 ft | 441 kts | 78° |
| 2026-05-07 03:35 | 11.79345 | -64.90523 | 32910 ft | 448 kts | 78° |
| 2026-05-07 03:36 | 11.80815 | -64.84306 | 32907 ft | 448 kts | 79° |
| 2026-05-07 03:36 | 11.82245 | -64.78228 | 32901 ft | 436 kts | 79° |
| 2026-05-07 03:37 | 11.83651 | -64.72265 | 32903 ft | 431 kts | 79° |
| 2026-05-07 03:37 | 11.85061 | -64.66397 | 32909 ft | 437 kts | 78° |
| 2026-05-07 03:38 | 11.86501 | -64.60364 | 32911 ft | 445 kts | 78° |
| 2026-05-07 03:38 | 11.87994 | -64.54077 | 32910 ft | 451 kts | 78° |
| 2026-05-07 03:39 | 11.89476 | -64.47847 | 32907 ft | 450 kts | 78° |
| 2026-05-07 03:39 | 11.90926 | -64.41686 | 32906 ft | 442 kts | 79° |
| 2026-05-07 03:40 | 11.92338 | -64.35651 | 32906 ft | 434 kts | 79° |
| 2026-05-07 03:40 | 11.93725 | -64.29776 | 32908 ft | 432 kts | 79° |
| 2026-05-07 03:41 | 11.95152 | -64.23755 | 32906 ft | 433 kts | 79° |
| 2026-05-07 03:41 | 11.96562 | -64.17776 | 32911 ft | 438 kts | 79° |
| 2026-05-07 03:42 | 11.97995 | -64.11712 | 32911 ft | 442 kts | 79° |
| 2026-05-07 03:42 | 11.99438 | -64.05617 | 32906 ft | 438 kts | 79° |
| 2026-05-07 03:43 | 12.00846 | -63.99696 | 32902 ft | 427 kts | 79° |
| 2026-05-07 03:43 | 12.02005 | -63.94841 | 32900 ft | 423 kts | 79° |
| 2026-05-07 03:44 | 12.03341 | -63.89212 | 32911 ft | 428 kts | 79° |
| 2026-05-07 03:44 | 12.04763 | -63.83206 | 32910 ft | 436 kts | 79° |
| 2026-05-07 03:45 | 12.06186 | -63.77147 | 32911 ft | 444 kts | 79° |
| 2026-05-07 03:45 | 12.07656 | -63.70993 | 32909 ft | 448 kts | 78° |
| 2026-05-07 03:46 | 12.09090 | -63.64920 | 32905 ft | 445 kts | 78° |
| 2026-05-07 03:46 | 12.10497 | -63.59046 | 32903 ft | 440 kts | 78° |
| 2026-05-07 03:47 | 12.11944 | -63.52951 | 32909 ft | 438 kts | 79° |
| 2026-05-07 03:47 | 12.13354 | -63.46923 | 32908 ft | 439 kts | 79° |
| 2026-05-07 03:48 | 12.14775 | -63.40857 | 32907 ft | 439 kts | 79° |
| 2026-05-07 03:48 | 12.16223 | -63.34811 | 32906 ft | 440 kts | 78° |
| 2026-05-07 03:49 | 12.17673 | -63.28756 | 32907 ft | 443 kts | 78° |
| 2026-05-07 03:49 | 12.19133 | -63.22588 | 32909 ft | 447 kts | 78° |
| 2026-05-07 03:50 | 12.20576 | -63.16414 | 32908 ft | 447 kts | 79° |
| 2026-05-07 03:50 | 12.22023 | -63.10304 | 32905 ft | 442 kts | 78° |
| 2026-05-07 03:51 | 12.23437 | -63.04309 | 32908 ft | 432 kts | 79° |
| 2026-05-07 03:51 | 12.24850 | -62.98355 | 32898 ft | 426 kts | 79° |
| 2026-05-07 03:52 | 12.26241 | -62.92450 | 32911 ft | 432 kts | 79° |
| 2026-05-07 03:52 | 12.27651 | -62.86451 | 32911 ft | 440 kts | 78° |
| 2026-05-07 03:53 | 12.29114 | -62.80344 | 32909 ft | 447 kts | 78° |
| 2026-05-07 03:53 | 12.30583 | -62.74154 | 32909 ft | 444 kts | 79° |
| 2026-05-07 03:54 | 12.32010 | -62.68140 | 32895 ft | 426 kts | 79° |
| 2026-05-07 03:54 | 12.33401 | -62.62271 | 32907 ft | 428 kts | 79° |
| 2026-05-07 03:55 | 12.34802 | -62.56306 | 32911 ft | 437 kts | 79° |
| 2026-05-07 03:55 | 12.36228 | -62.50246 | 32909 ft | 445 kts | 78° |
| 2026-05-07 03:56 | 12.37723 | -62.44068 | 32908 ft | 449 kts | 78° |
| 2026-05-07 03:56 | 12.39175 | -62.37898 | 32905 ft | 443 kts | 78° |
| 2026-05-07 03:57 | 12.40626 | -62.31814 | 32906 ft | 442 kts | 78° |
| 2026-05-07 03:57 | 12.42069 | -62.25698 | 32909 ft | 446 kts | 78° |
| 2026-05-07 03:58 | 12.43531 | -62.19528 | 32911 ft | 449 kts | 79° |
| 2026-05-07 03:58 | 12.44965 | -62.13363 | 32906 ft | 444 kts | 79° |
| 2026-05-07 03:59 | 12.46410 | -62.07291 | 32903 ft | 436 kts | 78° |
| 2026-05-07 03:59 | 12.47825 | -62.01319 | 32909 ft | 436 kts | 79° |
| 2026-05-07 04:00 | 12.49246 | -61.95234 | 32909 ft | 440 kts | 78° |
| 2026-05-07 04:00 | 12.50705 | -61.89116 | 32912 ft | 445 kts | 78° |
| 2026-05-07 04:01 | 12.52143 | -61.82985 | 32908 ft | 445 kts | 79° |
| 2026-05-07 04:01 | 12.53597 | -61.76850 | 32905 ft | 441 kts | 79° |
| 2026-05-07 04:02 | 12.55012 | -61.70824 | 32906 ft | 437 kts | 79° |
| 2026-05-07 04:02 | 12.56429 | -61.64803 | 32908 ft | 434 kts | 79° |
| 2026-05-07 04:03 | 12.57850 | -61.58804 | 32903 ft | 433 kts | 79° |
| 2026-05-07 04:03 | 12.59278 | -61.52809 | 32912 ft | 436 kts | 79° |
| 2026-05-07 04:04 | 12.60628 | -61.47113 | 32906 ft | 437 kts | 79° |
| 2026-05-07 04:04 | 12.62089 | -61.40911 | 32907 ft | 439 kts | 79° |
| 2026-05-07 04:05 | 12.63498 | -61.34928 | 32907 ft | 440 kts | 78° |
| 2026-05-07 04:05 | 12.64962 | -61.28761 | 32908 ft | 441 kts | 79° |
| 2026-05-07 04:06 | 12.66389 | -61.22678 | 32909 ft | 440 kts | 79° |
| 2026-05-07 04:06 | 12.67799 | -61.16686 | 32906 ft | 436 kts | 79° |
| 2026-05-07 04:07 | 12.69232 | -61.10632 | 32904 ft | 429 kts | 79° |
| 2026-05-07 04:07 | 12.70637 | -61.04714 | 32904 ft | 428 kts | 79° |
| 2026-05-07 04:08 | 12.72040 | -60.98771 | 32909 ft | 435 kts | 79° |
| 2026-05-07 04:08 | 12.73498 | -60.92704 | 32908 ft | 444 kts | 78° |
| 2026-05-07 04:09 | 12.74971 | -60.86536 | 32911 ft | 452 kts | 78° |
| 2026-05-07 04:09 | 12.76462 | -60.80235 | 32910 ft | 455 kts | 78° |
| 2026-05-07 04:10 | 12.77931 | -60.74036 | 32900 ft | 443 kts | 78° |
| 2026-05-07 04:10 | 12.78631 | -60.71013 | 32699 ft | 441 kts | 79° |
| 2026-05-07 04:10 | 12.79336 | -60.67972 | 32212 ft | 445 kts | 78° |
| 2026-05-07 04:10 | 12.80072 | -60.64862 | 31571 ft | 447 kts | 78° |
| 2026-05-07 04:11 | 12.80814 | -60.61733 | 30897 ft | 446 kts | 78° |
| 2026-05-07 04:11 | 12.81533 | -60.58665 | 30226 ft | 442 kts | 79° |
| 2026-05-07 04:11 | 12.82244 | -60.55621 | 29550 ft | 438 kts | 79° |
| 2026-05-07 04:11 | 12.82950 | -60.52632 | 28892 ft | 433 kts | 79° |
| 2026-05-07 04:12 | 12.83655 | -60.49642 | 28235 ft | 429 kts | 79° |
| 2026-05-07 04:12 | 12.84347 | -60.46694 | 27587 ft | 425 kts | 79° |
| 2026-05-07 04:12 | 12.85034 | -60.43764 | 26935 ft | 421 kts | 79° |
| 2026-05-07 04:12 | 12.85717 | -60.40867 | 26301 ft | 417 kts | 79° |
| 2026-05-07 04:13 | 12.86396 | -60.37982 | 25670 ft | 413 kts | 79° |
| 2026-05-07 04:13 | 12.87064 | -60.35145 | 25046 ft | 409 kts | 79° |
| 2026-05-07 04:13 | 12.87723 | -60.32353 | 24384 ft | 392 kts | 79° |
| 2026-05-07 04:13 | 12.88351 | -60.29730 | 23682 ft | 372 kts | 79° |
| 2026-05-07 04:14 | 12.88956 | -60.27222 | 22944 ft | 356 kts | 79° |
| 2026-05-07 04:14 | 12.89545 | -60.24800 | 22184 ft | 347 kts | 79° |
| 2026-05-07 04:14 | 12.90115 | -60.22403 | 21433 ft | 348 kts | 79° |
| 2026-05-07 04:14 | 12.90682 | -60.19985 | 20693 ft | 352 kts | 79° |
| 2026-05-07 04:15 | 12.91262 | -60.17549 | 19946 ft | 349 kts | 79° |
| 2026-05-07 04:15 | 12.91832 | -60.15160 | 19191 ft | 341 kts | 79° |
| 2026-05-07 04:15 | 12.92358 | -60.12900 | 18458 ft | 334 kts | 80° |
| 2026-05-07 04:15 | 12.92902 | -60.10531 | 17682 ft | 329 kts | 80° |
| 2026-05-07 04:16 | 12.93424 | -60.08280 | 16935 ft | 324 kts | 79° |
| 2026-05-07 04:16 | 12.93944 | -60.06070 | 16214 ft | 320 kts | 80° |
| 2026-05-07 04:16 | 12.94460 | -60.03869 | 15425 ft | 312 kts | 80° |
| 2026-05-07 04:16 | 12.94963 | -60.01744 | 14666 ft | 302 kts | 80° |
| 2026-05-07 04:17 | 12.95454 | -59.99694 | 13910 ft | 295 kts | 80° |
| 2026-05-07 04:17 | 12.95941 | -59.97680 | 13157 ft | 287 kts | 80° |
| 2026-05-07 04:17 | 12.96412 | -59.95735 | 12514 ft | 276 kts | 80° |
| 2026-05-07 04:17 | 12.96852 | -59.93858 | 11878 ft | 269 kts | 81° |
| 2026-05-07 04:18 | 12.97280 | -59.92012 | 11277 ft | 266 kts | 81° |
| 2026-05-07 04:18 | 12.97703 | -59.90191 | 10558 ft | 263 kts | 81° |
| 2026-05-07 04:18 | 12.98141 | -59.88364 | 9746 ft | 263 kts | 80° |
| 2026-05-07 04:18 | 12.98578 | -59.86552 | 8959 ft | 262 kts | 79° |
| 2026-05-07 04:19 | 12.99006 | -59.84743 | 8162 ft | 262 kts | 79° |
| 2026-05-07 04:19 | 12.99432 | -59.82945 | 7420 ft | 259 kts | 79° |
| 2026-05-07 04:19 | 12.99835 | -59.81169 | 6725 ft | 254 kts | 82° |
| 2026-05-07 04:19 | 12.99796 | -59.79403 | 6076 ft | 244 kts | 99° |
| 2026-05-07 04:20 | 12.99665 | -59.77686 | 5385 ft | 243 kts | 90° |
| 2026-05-07 04:20 | 13.00110 | -59.76058 | 4756 ft | 242 kts | 69° |
| 2026-05-07 04:20 | 13.00734 | -59.74450 | 4115 ft | 237 kts | 73° |
| 2026-05-07 04:21 | 13.01802 | -59.71371 | 3210 ft | 216 kts | 67° |
| 2026-05-07 04:21 | 13.02402 | -59.70034 | 3095 ft | 202 kts | 69° |
| 2026-05-07 04:21 | 13.02879 | -59.68701 | 3019 ft | 191 kts | 75° |
| 2026-05-07 04:21 | 13.03199 | -59.67450 | 2987 ft | 175 kts | 80° |
| 2026-05-07 04:22 | 13.03430 | -59.66278 | 2968 ft | 163 kts | 82° |
| 2026-05-07 04:22 | 13.03633 | -59.65205 | 2957 ft | 146 kts | 83° |
| 2026-05-07 04:22 | 13.03843 | -59.64163 | 2693 ft | 154 kts | 82° |
| 2026-05-07 04:22 | 13.04067 | -59.63074 | 2514 ft | 157 kts | 81° |
| 2026-05-07 04:23 | 13.04307 | -59.62002 | 2330 ft | 148 kts | 79° |
| 2026-05-07 04:23 | 13.04519 | -59.60996 | 2053 ft | 148 kts | 83° |
| 2026-05-07 04:23 | 13.04736 | -59.59979 | 1876 ft | 145 kts | 78° |
| 2026-05-07 04:23 | 13.05021 | -59.59010 | 1699 ft | 141 kts | 75° |
| 2026-05-07 04:24 | 13.05313 | -59.58055 | 1515 ft | 138 kts | 78° |
| 2026-05-07 04:24 | 13.05588 | -59.57115 | 1352 ft | 138 kts | 78° |
| 2026-05-07 04:24 | 13.05807 | -59.56145 | 1217 ft | 141 kts | 83° |
| 2026-05-07 04:24 | 13.05979 | -59.55141 | 1083 ft | 145 kts | 82° |
| 2026-05-07 04:25 | 13.06238 | -59.54143 | 965 ft | 146 kts | 77° |
| 2026-05-07 04:25 | 13.06503 | -59.53147 | 782 ft | 145 kts | 80° |
| 2026-05-07 04:25 | 13.06756 | -59.52158 | 575 ft | 145 kts | 79° |
| 2026-05-07 04:25 | 13.06992 | -59.51168 | 331 ft | 140 kts | 81° |
| 2026-05-07 04:26 | 13.07211 | -59.50234 | 178 ft | 121 kts | 78° |
| 2026-05-07 04:26 | 13.07357 | -59.49647 | 177 ft | 56 kts | 76° |
| 2026-05-07 04:26 | 13.07429 | -59.49353 | 177 ft | 29 kts | 74° |
| 2026-05-07 04:26 | 13.07475 | -59.49166 | 177 ft | 28 kts | 77° |
| 2026-05-07 04:27 | 13.07523 | -59.48979 | 177 ft | 17 kts | 58° |
| 2026-05-07 04:27 | 13.07592 | -59.48914 | 177 ft | 13 kts | 31° |
| 2026-05-07 04:27 | 13.07660 | -59.48862 | 177 ft | 14 kts | 37° |
| 2026-05-07 04:27 | 13.07717 | -59.48806 | 177 ft | 12 kts | 46° |
| 2026-05-07 04:28 | 13.07779 | -59.48739 | 177 ft | 11 kts | 39° |
| 2026-05-07 04:28 | 13.07830 | -59.48741 | 177 ft | 8 kts | 349° |
| 2026-05-07 04:28 | 13.07871 | -59.48750 | 177 ft | 4 kts | 347° |
| 2026-05-07 04:28 | 13.07872 | -59.48750 | 177 ft | 0 kts | 347° |
| 2026-05-07 04:29 | 13.07873 | -59.48750 | 177 ft | 0 kts | 347° |
| 2026-05-07 04:30 | 13.07872 | -59.48750 | 177 ft | 1 kts | 347° |
| 2026-05-07 04:30 | 13.07868 | -59.48749 | 177 ft | 0 kts | 347° |